This is the latest recevied weather packets stored in our database for station/object HARMAJA. If no packets are shown the sender has not sent any weather packets the latest 10 day(s).
| Time | Temp. | Humidity | Pressure | Rain* | Wind** | Luminosity | Snow |
|---|---|---|---|---|---|---|---|
| 1788596692 | 15° C | 79% | 994.7 hPa | - | - | - | - |
| 1788595488 | 14.44° C | 81% | 994.6 hPa | - | - | - | - |
| 1788594079 | 14.44° C | 85% | 994.6 hPa | - | - | - | - |
| 1788593088 | 13.89° C | 89% | 994.5 hPa | - | - | - | - |
| 1788591892 | 13.89° C | 89% | 994.3 hPa | - | - | - | - |
| 1788590688 | 13.33° C | 91% | 994.2 hPa | - | - | - | - |
| 1788589488 | 13.33° C | 92% | 994 hPa | - | - | - | - |
| 1788554686 | 15° C | 82% | 995.8 hPa | - | - | - | - |
| 1788537677 | 15° C | 77% | 997.5 hPa | - | - | - | - |
| 1788535485 | 15.56° C | 77% | 997.6 hPa | - | - | - | - |
| 1788530475 | 15.56° C | 72% | 998.2 hPa | - | - | - | - |
| 1788528284 | 16.11° C | 69% | 998.1 hPa | - | - | - | - |
| 1788527084 | 16.11° C | 70% | 998 hPa | - | - | - | - |
| 1788521084 | 16.11° C | 70% | 998.2 hPa | - | - | - | - |
| 1788517484 | 16.67° C | 70% | 998.4 hPa | - | - | - | - |
| 1788515084 | 16.11° C | 74% | 998.7 hPa | - | - | - | - |
| 1788513885 | 15° C | 75% | 998.7 hPa | - | - | - | - |
| 1788511485 | 15° C | 77% | 998.8 hPa | - | - | - | - |
| 1788510284 | 15° C | 77% | 998.8 hPa | - | - | - | - |
| 1788506684 | 14.44° C | 80% | 999 hPa | - | - | - | - |
| 1788505484 | 14.44° C | 83% | 999.4 hPa | - | - | - | - |
| 1788503084 | 14.44° C | 84% | 999.5 hPa | - | - | - | - |
| 1788501884 | 14.44° C | 85% | 999.6 hPa | - | - | - | - |
| 1788499483 | 14.44° C | 84% | 999.9 hPa | - | - | - | - |
| 1788498283 | 14.44° C | 85% | 1000.1 hPa | - | - | - | - |
* Rain since midnight (hover to see other rain measurements)
** Current wind speed in m/s (hover to see current wind gust speed)